createdAt,value
2019-04-30T00:02:18.763Z,55.67
2019-04-30T00:06:27.366Z,59.13
2019-04-30T00:10:36.872Z,52.90
2019-04-30T00:14:39.937Z,62.87
2019-04-30T00:18:55.438Z,54.70
2019-04-30T00:22:50.440Z,57.70
2019-04-30T00:26:55.335Z,56.80
2019-04-30T00:31:00.017Z,57.37
2019-04-30T00:35:07.020Z,61.97
2019-04-30T00:39:13.289Z,52.13
2019-04-30T00:43:17.180Z,55.33
2019-04-30T00:47:21.720Z,57.53
2019-04-30T00:51:26.334Z,59.90
2019-04-30T00:55:30.886Z,58.60
2019-04-30T00:59:35.456Z,54.83
2019-04-30T01:03:46.412Z,56.40
2019-04-30T01:07:51.551Z,52.83
2019-04-30T01:11:55.305Z,55.17
2019-04-30T01:15:59.980Z,58.53
2019-04-30T01:20:05.081Z,58.07
2019-04-30T01:24:09.683Z,56.63
2019-04-30T01:28:16.435Z,61.73
2019-04-30T01:32:21.516Z,59.83
2019-04-30T01:36:26.072Z,59.60
2019-04-30T01:40:30.647Z,58.50
2019-04-30T01:44:35.208Z,62.57
2019-04-30T01:48:43.583Z,66.70
2019-04-30T01:52:55.218Z,59.07
2019-04-30T01:57:19.316Z,61.13
2019-04-30T02:01:25.049Z,62.27
2019-04-30T02:05:29.635Z,57.80
2019-04-30T02:09:34.188Z,60.43
2019-04-30T02:13:39.237Z,54.63
2019-04-30T02:17:43.975Z,58.27
2019-04-30T02:21:48.779Z,57.13
2019-04-30T02:25:53.432Z,55.63
2019-04-30T02:29:59.393Z,56.53
2019-04-30T02:34:13.752Z,57.97
2019-04-30T02:38:30.865Z,56.47
2019-04-30T02:42:39.700Z,57.00
2019-04-30T02:46:46.211Z,61.47
2019-04-30T02:50:52.179Z,58.03
2019-04-30T02:54:59.376Z,57.00
2019-04-30T02:59:04.262Z,58.47
2019-04-30T03:03:10.259Z,54.07
2019-04-30T03:07:15.010Z,50.37
2019-04-30T03:11:21.156Z,50.30
2019-04-30T03:15:25.790Z,51.83
2019-04-30T03:19:42.366Z,50.83
2019-04-30T03:23:47.039Z,53.27
2019-04-30T03:27:51.591Z,51.07
2019-04-30T03:31:56.144Z,51.10
2019-04-30T03:36:02.148Z,52.10
2019-04-30T03:40:12.711Z,50.70
2019-04-30T03:44:21.343Z,47.17
2019-04-30T03:48:20.268Z,49.07
2019-04-30T03:52:24.791Z,48.93
2019-04-30T03:56:29.873Z,52.23
2019-04-30T04:00:56.236Z,54.40
2019-04-30T04:05:20.254Z,56.50
2019-04-30T04:09:30.628Z,49.90
2019-04-30T04:13:35.273Z,51.33
2019-04-30T04:17:39.977Z,54.83
2019-04-30T04:21:44.508Z,48.10
2019-04-30T04:25:49.822Z,42.13
2019-04-30T04:29:54.634Z,47.60
2019-04-30T04:34:00.006Z,49.33
2019-04-30T04:38:04.865Z,50.60
2019-04-30T04:42:10.182Z,49.37
2019-04-30T04:46:14.977Z,47.77
2019-04-30T04:50:20.061Z,47.43
2019-04-30T04:54:24.912Z,53.60
2019-04-30T04:58:30.252Z,51.97
2019-04-30T05:02:44.748Z,50.13
2019-04-30T05:06:49.883Z,49.07
2019-04-30T05:10:54.643Z,50.07
2019-04-30T05:14:59.744Z,49.77
2019-04-30T05:19:04.583Z,48.47
2019-04-30T05:23:09.497Z,49.70
2019-04-30T05:27:14.092Z,50.27
2019-04-30T05:31:20.984Z,46.67
2019-04-30T05:35:24.897Z,47.10
2019-04-30T05:39:29.457Z,47.93
2019-04-30T05:43:34.114Z,43.77
2019-04-30T05:47:39.011Z,43.30
2019-04-30T05:51:53.580Z,42.10
2019-04-30T05:55:49.835Z,44.87
2019-04-30T05:59:54.402Z,39.67
2019-04-30T06:03:59.425Z,43.87
2019-04-30T06:08:04.069Z,47.33
2019-04-30T06:12:23.649Z,42.80
2019-04-30T06:16:29.857Z,42.90
2019-04-30T06:20:34.499Z,40.17
2019-04-30T06:24:39.577Z,41.30
2019-04-30T06:28:44.300Z,38.00
2019-04-30T06:32:49.641Z,42.40
2019-04-30T06:36:56.942Z,36.87
2019-04-30T06:41:00.960Z,35.30
2019-04-30T06:45:09.230Z,37.30
2019-04-30T06:49:13.829Z,39.43
2019-04-30T06:53:19.230Z,36.97
2019-04-30T06:57:26.985Z,37.13
2019-04-30T07:01:31.541Z,41.03
2019-04-30T07:05:37.058Z,35.57
2019-04-30T07:09:53.189Z,36.03
2019-04-30T07:13:55.085Z,33.97
2019-04-30T07:17:59.639Z,36.37
2019-04-30T07:22:04.287Z,36.23
2019-04-30T07:26:09.191Z,37.70
2019-04-30T07:30:14.174Z,36.77
2019-04-30T07:34:19.658Z,37.87
2019-04-30T07:38:25.168Z,37.37
2019-04-30T07:42:29.780Z,31.43
2019-04-30T07:46:35.106Z,35.33
2019-04-30T07:50:41.511Z,34.23
2019-04-30T07:54:46.392Z,33.70
2019-04-30T07:58:50.948Z,31.97
2019-04-30T08:03:20.796Z,32.47
2019-04-30T08:07:25.713Z,35.73
2019-04-30T08:11:34.517Z,34.80
2019-04-30T08:15:36.505Z,35.13
2019-04-30T08:19:41.200Z,33.87
2019-04-30T08:23:45.820Z,30.53
2019-04-30T08:27:50.367Z,33.30
2019-04-30T08:31:54.928Z,39.17
2019-04-30T08:36:00.962Z,35.63
2019-04-30T08:40:08.527Z,39.50
2019-04-30T08:44:12.743Z,34.83
2019-04-30T08:48:18.964Z,45.03
2019-04-30T08:52:23.724Z,45.60
2019-04-30T08:56:29.540Z,48.90
2019-04-30T09:00:34.222Z,50.80
2019-04-30T09:04:38.872Z,49.83
2019-04-30T09:08:44.841Z,47.57
2019-04-30T09:12:51.897Z,47.83
2019-04-30T09:16:55.692Z,48.37
2019-04-30T09:21:05.962Z,45.93
2019-04-30T09:25:06.573Z,49.87
2019-04-30T09:29:11.127Z,45.13
2019-04-30T09:33:15.715Z,47.17
2019-04-30T09:37:20.276Z,45.10
2019-04-30T09:41:24.891Z,46.10
2019-04-30T09:45:30.355Z,47.23
2019-04-30T09:49:34.917Z,44.77
2019-04-30T09:53:39.964Z,39.00
2019-04-30T09:57:44.912Z,40.47
2019-04-30T10:01:49.468Z,42.07
2019-04-30T10:05:53.979Z,35.53
2019-04-30T10:09:59.044Z,38.67
2019-04-30T10:14:03.803Z,35.83
2019-04-30T10:18:08.756Z,27.87
2019-04-30T10:22:13.377Z,30.30
2019-04-30T10:26:17.932Z,31.63
2019-04-30T10:30:25.422Z,29.20
2019-04-30T10:34:29.976Z,31.07
2019-04-30T10:38:34.546Z,31.53
2019-04-30T10:42:39.313Z,28.87
2019-04-30T10:46:43.937Z,31.53
2019-04-30T10:50:49.203Z,26.60
2019-04-30T10:54:53.833Z,27.40
2019-04-30T10:58:58.376Z,33.87
2019-04-30T11:03:02.927Z,31.27
2019-04-30T11:07:08.619Z,29.50
2019-04-30T11:11:13.199Z,30.20
2019-04-30T11:15:20.672Z,28.23
2019-04-30T11:19:24.002Z,29.63
2019-04-30T11:23:29.666Z,29.40
2019-04-30T11:27:34.931Z,29.07
2019-04-30T11:31:59.054Z,28.93
2019-04-30T11:36:05.088Z,29.50
2019-04-30T11:40:11.832Z,27.60
2019-04-30T11:44:28.545Z,27.13
2019-04-30T11:48:22.559Z,24.80
2019-04-30T11:52:27.120Z,26.13
2019-04-30T11:56:31.712Z,34.07
2019-04-30T12:00:39.463Z,25.93
2019-04-30T12:04:44.112Z,25.23
2019-04-30T12:09:13.367Z,23.83
2019-04-30T12:13:43.084Z,21.43
2019-04-30T12:17:47.635Z,20.73
2019-04-30T12:21:52.190Z,21.33
2019-04-30T12:25:59.411Z,17.90
2019-04-30T12:30:03.254Z,18.62
2019-04-30T12:34:07.755Z,16.32
2019-04-30T12:38:12.303Z,16.37
2019-04-30T12:42:18.692Z,18.03
2019-04-30T12:46:23.050Z,15.20
2019-04-30T12:50:39.174Z,12.73
2019-04-30T12:54:54.420Z,13.97
2019-04-30T12:58:58.983Z,20.63
2019-04-30T13:03:03.532Z,12.97
2019-04-30T13:07:10.587Z,16.03
2019-04-30T13:11:14.864Z,14.93
2019-04-30T13:15:19.852Z,13.10
2019-04-30T13:19:24.396Z,15.70
2019-04-30T13:23:29.770Z,13.53
2019-04-30T13:27:36.396Z,13.48
2019-04-30T13:31:41.052Z,12.68
2019-04-30T13:35:45.589Z,14.47
2019-04-30T13:40:11.949Z,13.90
2019-04-30T13:44:24.591Z,15.07
2019-04-30T13:48:29.188Z,16.10
2019-04-30T13:52:33.692Z,16.60
2019-04-30T13:56:39.679Z,13.30
2019-04-30T14:00:44.387Z,14.53
2019-04-30T14:05:23.238Z,14.10
2019-04-30T14:09:29.115Z,16.13
2019-04-30T14:13:33.659Z,13.53
2019-04-30T14:17:40.010Z,13.20
2019-04-30T14:21:44.380Z,15.57
2019-04-30T14:25:56.247Z,13.77
2019-04-30T14:29:55.282Z,15.80
2019-04-30T14:33:59.816Z,16.40
2019-04-30T14:38:05.245Z,15.30
2019-04-30T14:42:11.537Z,14.10
2019-04-30T14:46:41.491Z,17.80
2019-04-30T14:50:46.683Z,16.97
2019-04-30T14:55:18.818Z,14.33
2019-04-30T14:59:48.751Z,19.00
2019-04-30T15:03:53.455Z,16.20
2019-04-30T15:08:00.694Z,20.00
2019-04-30T15:12:04.743Z,15.60
2019-04-30T15:16:09.304Z,18.27
2019-04-30T15:20:14.329Z,19.97
2019-04-30T15:24:35.916Z,16.27
2019-04-30T15:28:41.462Z,18.20
2019-04-30T15:32:49.477Z,16.23
2019-04-30T15:36:54.127Z,18.40
2019-04-30T15:41:01.743Z,19.03
2019-04-30T15:45:06.288Z,27.07
2019-04-30T15:49:10.843Z,20.20
2019-04-30T15:53:15.392Z,20.50
2019-04-30T15:57:19.943Z,19.57
2019-04-30T16:01:24.496Z,19.83
2019-04-30T16:05:38.093Z,19.73
2019-04-30T16:09:58.470Z,23.60
2019-04-30T16:14:10.902Z,19.83
2019-04-30T16:18:15.552Z,19.00
2019-04-30T16:22:20.894Z,21.63
2019-04-30T16:26:25.579Z,22.17
2019-04-30T16:30:30.125Z,22.30
2019-04-30T16:34:34.761Z,19.73
2019-04-30T16:38:39.404Z,19.67
2019-04-30T16:42:43.989Z,19.70
2019-04-30T16:46:49.868Z,22.33
2019-04-30T16:50:54.821Z,17.83
2019-04-30T16:54:59.411Z,20.53
2019-04-30T16:59:06.127Z,20.97
2019-04-30T17:03:19.142Z,18.63
2019-04-30T17:07:51.884Z,17.40
2019-04-30T17:12:12.301Z,17.17
2019-04-30T17:16:19.547Z,20.17
2019-04-30T17:20:24.558Z,16.77
2019-04-30T17:24:30.309Z,15.13
2019-04-30T17:28:35.097Z,19.10
2019-04-30T17:32:39.670Z,18.33
2019-04-30T17:36:44.239Z,17.63
2019-04-30T17:40:49.771Z,21.57
2019-04-30T17:44:58.733Z,17.57
2019-04-30T17:49:00.740Z,17.47
2019-04-30T17:53:05.325Z,23.73
2019-04-30T17:57:10.687Z,23.80
2019-04-30T18:01:15.428Z,17.40
2019-04-30T18:05:19.983Z,20.07
2019-04-30T18:09:24.538Z,17.20
2019-04-30T18:13:29.273Z,16.50
2019-04-30T18:17:33.852Z,18.70
2019-04-30T18:21:42.525Z,16.43
2019-04-30T18:25:50.860Z,18.60
2019-04-30T18:29:55.399Z,18.77
2019-04-30T18:33:59.988Z,15.37
2019-04-30T18:38:04.664Z,19.20
2019-04-30T18:42:10.992Z,17.23
2019-04-30T18:46:15.470Z,15.37
2019-04-30T18:50:20.030Z,15.20
2019-04-30T18:54:24.603Z,14.93
2019-04-30T18:58:39.328Z,15.20
2019-04-30T19:02:35.396Z,18.23
2019-04-30T19:06:39.965Z,14.83
2019-04-30T19:11:00.692Z,15.90
2019-04-30T19:16:08.891Z,14.67
2019-04-30T19:20:00.645Z,14.27
2019-04-30T19:24:05.324Z,14.23
2019-04-30T19:28:14.249Z,13.50
2019-04-30T19:32:16.120Z,13.83
2019-04-30T19:36:22.152Z,14.73
2019-04-30T19:40:28.554Z,11.80
2019-04-30T19:44:33.290Z,16.83
2019-04-30T19:48:37.945Z,11.77
2019-04-30T19:52:42.516Z,12.93
2019-04-30T19:56:47.035Z,12.63
2019-04-30T20:00:51.605Z,12.97
2019-04-30T20:04:56.168Z,16.10
2019-04-30T20:09:00.881Z,12.87
2019-04-30T20:13:05.519Z,12.53
2019-04-30T20:17:12.910Z,16.60
2019-04-30T20:21:26.256Z,18.60
2019-04-30T20:25:25.325Z,14.33
2019-04-30T20:29:29.968Z,15.17
2019-04-30T20:33:34.853Z,16.30
2019-04-30T20:37:59.340Z,16.13
2019-04-30T20:42:03.342Z,15.37
2019-04-30T20:46:08.594Z,16.77
2019-04-30T20:50:13.367Z,18.43
2019-04-30T20:54:18.997Z,14.60
2019-04-30T20:58:23.568Z,14.97
2019-04-30T21:02:28.666Z,17.13
2019-04-30T21:06:33.399Z,26.93
2019-04-30T21:10:39.659Z,20.07
2019-04-30T21:14:44.356Z,21.73
2019-04-30T21:18:48.916Z,26.37
2019-04-30T21:22:53.451Z,27.13
2019-04-30T21:26:58.039Z,29.83
2019-04-30T21:31:21.548Z,26.37
2019-04-30T21:35:35.549Z,27.53
2019-04-30T21:39:40.142Z,29.53
2019-04-30T21:43:44.677Z,30.53
2019-04-30T21:47:56.183Z,31.93
2019-04-30T21:51:55.453Z,30.27
2019-04-30T21:56:00.019Z,31.93
2019-04-30T22:00:08.928Z,32.67
2019-04-30T22:04:13.505Z,29.83
2019-04-30T22:08:18.872Z,31.07
2019-04-30T22:12:23.521Z,31.67
2019-04-30T22:16:29.655Z,30.60
2019-04-30T22:20:34.360Z,28.53
2019-04-30T22:24:38.999Z,30.60
2019-04-30T22:28:43.478Z,33.87
2019-04-30T22:32:48.054Z,31.53
2019-04-30T22:36:52.620Z,36.00
2019-04-30T22:40:58.827Z,32.27
2019-04-30T22:45:04.644Z,35.77
2019-04-30T22:49:09.164Z,33.30
2019-04-30T22:53:13.731Z,34.17
2019-04-30T22:57:18.332Z,34.70
2019-04-30T23:01:57.192Z,34.50
2019-04-30T23:06:01.864Z,31.20
2019-04-30T23:10:08.002Z,35.23
2019-04-30T23:14:12.712Z,37.57
2019-04-30T23:18:17.334Z,40.90
2019-04-30T23:22:22.024Z,36.40
2019-04-30T23:26:26.634Z,34.97
2019-04-30T23:30:31.164Z,36.97
2019-04-30T23:34:35.728Z,37.73
2019-04-30T23:38:40.283Z,38.37
2019-04-30T23:42:44.871Z,38.93
2019-04-30T23:46:49.433Z,42.60
2019-04-30T23:50:53.955Z,40.03
2019-04-30T23:54:58.520Z,40.07
2019-04-30T23:59:03.093Z,44.20
